Terminal Aerodrome Forecast
Issued by NWS

Home | Current Version | Previous Version | Text Only | Print | Product List | Glossary On
Versions: 1 2 3 4 5 6 7 8 9 10 11 12 13 14 15 16 17 18
000
FTUS41 KGYX 230520
TAFRKD
TAF
KRKD 230520Z 2306/2406 VRB03KT P6SM BKN040 OVC080
     FM230800 VRB03KT 1SM BR BKN015 OVC050
     FM231200 04007KT P6SM BKN025 OVC050
     FM231500 06008KT P6SM OVC050
      AMD LTD TO CLD VIS AND WIND=

USA.gov is the U.S. government's official web portal to all federal, state and local government web resources and services.